Impacts METAR Board
IDs:

KPDX - Portland Intl Arpt, OR, US

Updated at: 2200 UTC 19 Jun 2018
Potential Impact None Slight Moderate High
Time 19/10Z 19/11Z 19/12Z 19/13Z 19/14Z 19/15Z 19/16Z 19/17Z 19/18Z 19/19Z 19/20Z 19/21Z 19/22Z
Temp61 58 59 58 60 61 65 67 73 78 80 83 86
Dewpt55 54 54 54 55 55 55 55 55 46 46 46 45
Altim30.06 30.07 30.07 30.07 30.08 30.08 30.08 30.07 30.06 30.04 30.03 30.01 29.99
VIS10 10 10 10 10 10 10 10 10 10 10 10 10
CIG-- -- -- -- -- -- -- -- -- -- -- -- --
CoverSCTSCTSCTFEWFEWFEWFEWFEWSCTSCTSCTSCTSCT
FltCatVFRVFRVFRVFRVFRVFRVFRVFRVFRVFRVFRVFRVFR
WX--------------------------
WDir2903203003200003400102800280
WSpd5 4 5 6 0 0 3 3 3 4 3 3 3
WGst-- -- -- -- -- -- -- -- -- -- -- -- --
Raw hourly METARs
KPDX 190953Z 29005KT 10SM SCT250 16/13 A3006 RMK AO2 SLP177 T01610128
KPDX 191053Z 32004KT 10SM SCT250 14/12 A3007 RMK AO2 SLP179 T01440122
KPDX 191153Z 30005KT 10SM FEW150 SCT250 15/12 A3007 RMK AO2 SLP180 T01500122 10217 20144 51008
KPDX 191253Z 32006KT 10SM FEW150 FEW250 14/12 A3007 RMK AO2 SLP182 T01440122
KPDX 191353Z 00000KT 10SM FEW015 FEW150 FEW250 16/13 A3008 RMK AO2 SLP184 T01560128
KPDX 191453Z 00000KT 10SM FEW015 FEW150 FEW250 16/13 A3008 RMK AO2 SLP185 T01610128 52005
KPDX 191553Z VRB03KT 10SM FEW150 FEW250 18/13 A3008 RMK AO2 SLP184 ACC S T01830128
KPDX 191653Z 34003KT 10SM FEW180 FEW250 19/13 A3007 RMK AO2 SLP181 T01940128
KPDX 191753Z VRB03KT 10SM FEW180 SCT250 23/13 A3006 RMK AO2 SLP176 T02280128 10228 20144 58009
KPDX 191853Z 01004KT 10SM FEW180 SCT250 26/08 A3004 RMK AO2 SLP172 T02560078
KPDX 191953Z 28003KT 10SM FEW065 SCT160 SCT250 27/08 A3003 RMK AO2 SLP168 CB DSNT E T02670078
KPDX 192053Z VRB03KT 10SM FEW065 FEW160 SCT250 28/08 A3001 RMK AO2 SLP161 CB DSNT E T02830078 58016
KPDX 192153Z 28003KT 10SM FEW065 FEW150 SCT250 30/07 A2999 RMK AO2 SLP156 TCU DSNT E T03000072



Page loaded:  22:07 UTC  |   03:07 PM Pacific  |   04:07 PM Mountain  |   05:07 PM Central  |   06:07 PM Eastern

 

ADVISORIES

FORECASTS

FORECASTS

OBSERVATIONS

USER TOOLS

ABOUT US